Time,TemperatureF,DewpointF,PressureIn,WindDirection,WindDirectionDegrees,WindSpeedMPH,WindSpeedGustMPH,Humidity,HourlyPrecipIn,Conditions,Clouds,dailyrainin,SoftwareType,DateUTC
2013-01-08 00:22:00,40.0,-99.9,-100.00,WNW,286,2.0,3.0,-999,-99.99,,,-99.99,,2013-01-08 07:22:00,
2013-01-08 00:32:00,40.0,-99.9,-100.00,WNW,286,2.0,3.0,-999,-99.99,,,-99.99,,2013-01-08 07:32:00,
2013-01-08 02:02:00,40.0,-99.9,-100.00,SW,216,0.0,1.0,-999,-99.99,,,-99.99,,2013-01-08 09:02:00,
2013-01-08 02:12:00,40.0,-99.9,-100.00,SW,216,0.0,1.0,-999,-99.99,,,-99.99,,2013-01-08 09:12:00,
2013-01-08 04:20:00,36.0,-99.9,-100.00,East,81,3.0,3.0,-999,-99.99,,,-99.99,,2013-01-08 11:20:00,
2013-01-08 05:03:00,36.0,-99.9,-100.00,East,81,3.0,3.0,-999,-99.99,,,-99.99,,2013-01-08 12:03:00,
2013-01-08 05:12:00,36.0,-99.9,-100.00,East,81,3.0,3.0,-999,-99.99,,,-99.99,,2013-01-08 12:12:00,
2013-01-08 06:53:00,35.0,-99.9,-100.00,SSW,199,2.0,4.0,-999,-99.99,,,-99.99,,2013-01-08 13:53:00,
2013-01-08 07:03:00,35.0,-99.9,-100.00,SSW,199,2.0,4.0,-999,-99.99,,,-99.99,,2013-01-08 14:03:00,
2013-01-08 07:33:00,32.0,-99.9,-100.00,SSW,205,2.0,2.0,-999,-99.99,,,-99.99,,2013-01-08 14:33:00,
2013-01-08 07:40:00,34.0,-99.9,-100.00,WSW,253,3.0,3.0,-999,-99.99,,,-99.99,,2013-01-08 14:40:00,
2013-01-08 07:44:00,32.0,-99.9,-100.00,SSW,205,2.0,2.0,-999,-99.99,,,-99.99,,2013-01-08 14:44:00,
2013-01-08 07:53:00,32.0,-99.9,-100.00,SSW,205,2.0,2.0,-999,-99.99,,,-99.99,,2013-01-08 14:53:00,
2013-01-08 08:23:00,34.0,-99.9,-100.00,WSW,253,3.0,3.0,-999,-99.99,,,-99.99,,2013-01-08 15:23:00,
2013-01-08 08:33:00,34.0,-99.9,-100.00,WSW,253,3.0,3.0,-999,-99.99,,,-99.99,,2013-01-08 15:33:00,
2013-01-08 09:23:00,34.0,-99.9,-100.00,NW,322,1.0,2.0,-999,-99.99,,,-99.99,,2013-01-08 16:23:00,
2013-01-08 09:34:00,34.0,-99.9,-100.00,NW,322,1.0,2.0,-999,-99.99,,,-99.99,,2013-01-08 16:34:00,
2013-01-08 10:34:00,42.0,-99.9,-100.00,South,173,1.0,1.0,-999,-99.99,,,-99.99,,2013-01-08 17:34:00,
2013-01-08 10:43:00,42.0,-99.9,-100.00,South,173,1.0,1.0,-999,-99.99,,,-99.99,,2013-01-08 17:43:00,
2013-01-08 10:54:00,42.0,-99.9,-100.00,South,173,1.0,1.0,-999,-99.99,,,-99.99,,2013-01-08 17:54:00,
2013-01-08 11:53:00,46.0,-99.9,-100.00,South,173,1.0,3.0,-999,-99.99,,,-99.99,,2013-01-08 18:53:00,
2013-01-08 12:04:00,46.0,-99.9,-100.00,South,173,1.0,3.0,-999,-99.99,,,-99.99,,2013-01-08 19:04:00,
2013-01-08 13:40:00,54.0,-99.9,-100.00,SSE,165,1.0,4.0,-999,-99.99,,,-99.99,,2013-01-08 20:40:00,
2013-01-08 14:23:00,54.0,-99.9,-100.00,SSE,165,1.0,4.0,-999,-99.99,,,-99.99,,2013-01-08 21:23:00,
2013-01-08 14:34:00,54.0,-99.9,-100.00,SSE,165,1.0,4.0,-999,-99.99,,,-99.99,,2013-01-08 21:34:00,
2013-01-08 16:40:00,54.0,-99.9,-100.00,SSE,165,2.0,3.0,-999,-99.99,,,-99.99,,2013-01-08 23:40:00,
2013-01-08 17:23:00,54.0,-99.9,-100.00,SSE,165,2.0,3.0,-999,-99.99,,,-99.99,,2013-01-09 00:23:00,
2013-01-08 17:33:00,54.0,-99.9,-100.00,SSE,165,2.0,3.0,-999,-99.99,,,-99.99,,2013-01-09 00:33:00,
2013-01-08 18:20:00,46.0,-99.9,-100.00,East,97,5.0,7.0,-999,-99.99,,,-99.99,,2013-01-09 01:20:00,
2013-01-08 19:03:00,46.0,-99.9,-100.00,East,97,5.0,7.0,-999,-99.99,,,-99.99,,2013-01-09 02:03:00,
2013-01-08 19:12:00,46.0,-99.9,-100.00,East,97,5.0,7.0,-999,-99.99,,,-99.99,,2013-01-09 02:12:00,
2013-01-08 21:53:00,40.0,-99.9,-100.00,SW,227,1.0,2.0,-999,-99.99,,,-99.99,,2013-01-09 04:53:00,
2013-01-08 22:04:00,40.0,-99.9,-100.00,SW,227,1.0,2.0,-999,-99.99,,,-99.99,,2013-01-09 05:04:00,
2013-01-08 22:40:00,45.0,-99.9,-100.00,SE,142,7.0,8.0,-999,-99.99,,,-99.99,,2013-01-09 05:40:00,
2013-01-08 23:22:00,45.0,-99.9,-100.00,SE,142,7.0,8.0,-999,-99.99,,,-99.99,,2013-01-09 06:22:00,
2013-01-08 23:32:00,45.0,-99.9,-100.00,SE,142,7.0,8.0,-999,-99.99,,,-99.99,,2013-01-09 06:32:00,
2013-01-08 23:50:00,43.0,-99.9,-100.00,SSE,154,6.0,12.0,-999,-99.99,,,-99.99,,2013-01-09 06:50:00,